Time;durP1;ratioP1;P1;durP2;ratioP2;P2;SDS_P1;SDS_P2;PMS_P1;PMS_P2;Temp;Humidity;BMP_temperature;BMP_pressure;BME280_temperature;BME280_humidity;BME280_pressure;Samples;Min_cycle;Max_cycle;Signal;HPM_P1;HPM_P2
2021/11/16 00:00:14;;;;;;;65.38;27.33;;;;;;;4.49;96.71;96084.50;5091230;28;20035;-52
2021/11/16 00:02:42;;;;;;;57.53;25.58;;;;;;;4.47;97.03;96082.09;5104304;28;20035;-47
2021/11/16 00:05:10;;;;;;;57.45;26.45;;;;;;;4.48;97.10;96083.69;5109547;28;20485;-49
2021/11/16 00:07:36;;;;;;;58.80;24.85;;;;;;;4.63;96.88;96088.81;5107997;28;20143;-46
2021/11/16 00:10:05;;;;;;;58.72;25.48;;;;;;;4.78;96.76;96079.78;5093213;28;20044;-49
2021/11/16 00:12:32;;;;;;;60.63;26.95;;;;;;;5.16;94.66;96087.75;5103817;28;20079;-49
2021/11/16 00:14:59;;;;;;;61.17;25.63;;;;;;;4.92;94.00;96083.31;5107770;28;20043;-49
2021/11/16 00:17:26;;;;;;;64.03;28.23;;;;;;;4.66;95.33;96085.56;5109897;28;20157;-49
2021/11/16 00:19:53;;;;;;;64.60;26.13;;;;;;;4.65;95.59;96080.50;5109234;28;20115;-51
2021/11/16 00:22:21;;;;;;;65.53;26.50;;;;;;;4.67;95.87;96081.00;5091890;28;20109;-48
2021/11/16 00:27:33;;;;;;;60.40;26.27;;;;;;;4.73;95.06;96084.41;5109791;28;20044;-46
2021/11/16 00:30:00;;;;;;;62.78;27.48;;;;;;;4.53;96.28;96077.47;5110246;28;20190;-48
2021/11/16 00:32:28;;;;;;;68.38;28.98;;;;;;;4.12;97.56;96078.00;5106349;28;20043;-48
2021/11/16 00:34:55;;;;;;;76.10;28.23;;;;;;;4.23;97.76;96090.19;5109294;28;20096;-47
2021/11/16 00:37:27;;;;;;;72.63;28.45;;;;;;;4.30;97.10;96079.91;5108872;28;20046;-49
2021/11/16 00:40:00;;;;;;;74.13;29.85;;;;;;;4.11;98.50;96074.53;5110072;28;20050;-50
2021/11/16 00:42:29;;;;;;;75.60;30.80;;;;;;;4.70;95.99;96080.41;5108572;28;20043;-49
2021/11/16 00:44:56;;;;;;;80.53;31.95;;;;;;;4.66;96.73;96074.84;5113792;28;20126;-51
2021/11/16 00:47:23;;;;;;;75.55;30.92;;;;;;;4.72;97.02;96078.25;5112174;28;20045;-50
2021/11/16 00:49:53;;;;;;;82.68;31.98;;;;;;;4.77;95.68;96080.06;5113351;28;20211;-51
2021/11/16 00:52:21;;;;;;;81.93;31.95;;;;;;;5.03;93.84;96073.19;5113472;28;20046;-50
2021/11/16 00:54:48;;;;;;;77.47;30.27;;;;;;;4.78;95.39;96077.09;5112854;28;20043;-50
2021/11/16 00:57:16;;;;;;;82.20;31.65;;;;;;;4.99;94.32;96069.53;5113598;28;20115;-48
2021/11/16 00:59:43;;;;;;;82.03;30.58;;;;;;;4.91;95.45;96076.34;5112078;28;20040;-53
2021/11/16 01:02:10;;;;;;;82.72;31.77;;;;;;;5.11;93.35;96074.44;5111993;28;20047;-51
2021/11/16 01:04:37;;;;;;;81.88;30.83;;;;;;;4.89;94.57;96075.06;5108224;28;20044;-53
2021/11/16 01:07:05;;;;;;;90.30;33.15;;;;;;;5.13;93.58;96075.75;5094726;28;20115;-49
2021/11/16 01:09:32;;;;;;;91.47;34.03;;;;;;;5.16;93.10;96079.69;5112594;28;20451;-50
2021/11/16 01:11:59;;;;;;;94.03;33.58;;;;;;;4.57;95.97;96076.59;5111901;28;20070;-50
2021/11/16 01:14:26;;;;;;;86.85;31.92;;;;;;;4.77;96.24;96070.13;5112564;28;20036;-51
2021/11/16 01:16:53;;;;;;;97.07;34.30;;;;;;;4.64;95.50;96070.84;5114306;28;20495;-50
2021/11/16 01:19:20;;;;;;;79.68;33.30;;;;;;;4.74;96.46;96070.72;5110674;28;20105;-48
2021/11/16 01:21:48;;;;;;;83.82;33.95;;;;;;;4.89;95.20;96070.47;5109072;28;20050;-46
2021/11/16 01:24:16;;;;;;;80.40;32.03;;;;;;;5.28;94.11;96082.72;5094416;28;20126;-47
2021/11/16 01:26:46;;;;;;;82.07;31.67;;;;;;;4.93;95.15;96082.19;5112182;28;20445;-48
2021/11/16 01:29:14;;;;;;;71.28;28.88;;;;;;;4.81;95.81;96081.88;5112632;28;20450;-48
2021/11/16 01:31:41;;;;;;;66.45;28.23;;;;;;;4.67;96.23;96086.34;5113510;28;20077;-49
2021/11/16 01:34:10;;;;;;;64.40;27.48;;;;;;;4.80;96.28;96082.16;5108829;28;20040;-47
2021/11/16 01:36:37;;;;;;;64.43;26.38;;;;;;;4.74;96.15;96067.22;5111645;28;20078;-46
2021/11/16 01:39:06;;;;;;;61.83;26.40;;;;;;;4.61;96.77;96076.78;5111600;28;20035;-46
2021/11/16 01:41:33;;;;;;;62.00;26.33;;;;;;;4.54;97.20;96079.06;5099824;27;20040;-47
2021/11/16 01:44:01;;;;;;;61.45;26.80;;;;;;;4.60;97.45;96076.00;5092376;28;20058;-48
2021/11/16 01:46:28;;;;;;;69.88;26.98;;;;;;;4.82;95.90;96070.06;5112802;28;20040;-49
2021/11/16 01:48:56;;;;;;;64.65;26.48;;;;;;;4.78;96.04;96079.78;5110157;28;20472;-50
2021/11/16 01:51:26;;;;;;;69.60;27.55;;;;;;;4.58;96.76;96077.38;5113080;28;20043;-49
2021/11/16 01:54:01;;;;;;;69.05;26.08;;;;;;;4.74;96.90;96067.22;5107417;28;20044;-46
2021/11/16 01:56:55;;;;;;;64.25;26.77;;;;;;;4.85;96.42;96068.69;5112776;28;20122;-46
2021/11/16 01:59:22;;;;;;;71.53;28.00;;;;;;;5.27;93.41;96073.09;5110902;28;20527;-46
2021/11/16 02:01:50;;;;;;;65.28;26.42;;;;;;;4.91;95.42;96073.69;5112678;28;20040;-47
2021/11/16 02:04:18;;;;;;;75.60;28.17;;;;;;;4.65;96.26;96073.25;5109069;28;20508;-48
2021/11/16 02:06:45;;;;;;;69.43;28.33;;;;;;;4.67;97.07;96081.78;5112169;28;20047;-48
2021/11/16 02:09:14;;;;;;;74.90;29.45;;;;;;;4.94;95.54;96074.97;5110387;28;20130;-48
2021/11/16 02:11:41;;;;;;;79.95;29.30;;;;;;;4.62;96.52;96073.06;5093494;28;20484;-47
2021/11/16 02:14:15;;;;;;;81.20;29.95;;;;;;;4.60;96.76;96062.59;5110022;28;20044;-47
2021/11/16 02:16:42;;;;;;;;;;;;;;;4.37;97.76;96063.47;5112591;28;20071;-48
2021/11/16 02:19:12;;;;;;;83.47;29.20;;;;;;;4.30;98.84;96068.41;5112765;28;19930;-47
2021/11/16 02:21:40;;;;;;;93.60;31.40;;;;;;;4.56;97.51;96068.84;5111547;28;20047;-46
2021/11/16 02:24:07;;;;;;;84.38;30.02;;;;;;;4.40;98.16;96070.94;5109238;28;20122;-50
2021/11/16 02:26:36;;;;;;;84.88;31.67;;;;;;;4.29;99.50;96070.28;5108745;28;20047;-48
2021/11/16 02:29:05;;;;;;;77.93;29.98;;;;;;;4.42;99.17;96069.56;5111769;28;20400;-47
2021/11/16 02:31:33;;;;;;;82.68;28.33;;;;;;;4.68;97.23;96067.31;5111707;28;20041;-47
2021/11/16 02:34:00;;;;;;;93.35;30.73;;;;;;;4.31;98.56;96073.47;5082114;28;20122;-48
2021/11/16 02:36:30;;;;;;;92.10;30.90;;;;;;;4.15;100.00;96069.38;5110348;28;20035;-46
2021/11/16 02:38:58;;;;;;;90.70;29.15;;;;;;;4.34;99.79;96062.16;5110343;28;20085;-50
2021/11/16 02:41:31;;;;;;;98.57;30.77;;;;;;;4.21;100.00;96065.56;5090573;28;20123;-47
2021/11/16 02:43:59;;;;;;;84.32;28.92;;;;;;;4.47;100.00;96071.38;5099621;28;20062;-47
2021/11/16 02:46:28;;;;;;;91.97;30.88;;;;;;;4.45;99.73;96074.34;5111626;28;20046;-46
2021/11/16 02:48:55;;;;;;;83.25;30.08;;;;;;;4.40;99.69;96071.72;5109473;28;20408;-47
2021/11/16 02:51:23;;;;;;;85.15;30.20;;;;;;;4.35;99.60;96077.16;5087490;28;20493;-47
2021/11/16 02:53:50;;;;;;;83.07;29.08;;;;;;;4.32;99.59;96064.38;5102840;28;20465;-47
2021/11/16 02:56:17;;;;;;;85.25;31.60;;;;;;;4.23;100.00;96071.44;5093636;28;20041;-46
2021/11/16 02:58:45;;;;;;;76.18;28.00;;;;;;;4.36;99.96;96083.31;5110364;28;20039;-46
2021/11/16 03:01:15;;;;;;;77.57;28.58;;;;;;;4.28;100.00;96079.41;5111808;28;20059;-46
2021/11/16 03:03:44;;;;;;;79.57;29.65;;;;;;;4.26;100.00;96075.41;5102930;27;20043;-48
2021/11/16 03:06:12;;;;;;;84.00;31.10;;;;;;;4.28;100.00;96073.25;5111134;28;20408;-46
2021/11/16 03:08:40;;;;;;;91.43;31.08;;;;;;;4.50;100.00;96072.69;5090816;28;20040;-47
2021/11/16 03:11:09;;;;;;;93.57;29.67;;;;;;;4.61;99.52;96068.75;5110685;28;20066;-49
2021/11/16 03:13:37;;;;;;;86.90;30.98;;;;;;;4.59;99.88;96065.59;5110848;28;20050;-47
2021/11/16 03:16:05;;;;;;;84.35;30.20;;;;;;;4.76;99.30;96081.94;5110766;28;20084;-46
2021/11/16 03:18:32;;;;;;;93.72;30.35;;;;;;;4.58;99.41;96078.19;5109586;28;20446;-48
2021/11/16 03:20:59;;;;;;;92.55;31.50;;;;;;;4.62;99.29;96075.72;5101398;28;20046;-47
2021/11/16 03:23:26;;;;;;;95.10;30.42;;;;;;;4.45;99.88;96079.72;5106880;27;20657;-48
2021/11/16 03:26:00;;;;;;;78.07;27.67;;;;;;;4.57;99.62;96076.59;5091686;28;20458;-46
2021/11/16 03:28:29;;;;;;;;;;;;;;;4.44;99.82;96067.38;5103126;28;20504;-47
2021/11/16 03:31:00;;;;;;;72.10;26.45;;;;;;;4.41;99.96;96073.31;5109623;28;19923;-51
2021/11/16 03:33:27;;;;;;;65.43;25.45;;;;;;;4.43;99.76;96076.53;5107732;28;20044;-49
2021/11/16 03:35:54;;;;;;;63.67;23.00;;;;;;;4.29;100.00;96081.00;5108461;28;20043;-48
2021/11/16 03:38:22;;;;;;;60.03;21.05;;;;;;;4.22;100.00;96084.03;5108181;28;20071;-49
2021/11/16 03:40:51;;;;;;;60.95;22.45;;;;;;;4.25;100.00;96081.84;5107422;28;20127;-47
2021/11/16 03:43:19;;;;;;;63.55;23.25;;;;;;;4.30;100.00;96079.13;5107161;27;20119;-47
2021/11/16 03:45:47;;;;;;;80.65;25.40;;;;;;;4.31;99.80;96078.81;5111719;28;20130;-48
2021/11/16 03:48:14;;;;;;;62.95;22.45;;;;;;;4.51;99.08;96082.31;5108603;28;20063;-47
2021/11/16 03:50:42;;;;;;;54.25;20.67;;;;;;;4.35;99.99;96087.88;5110295;28;20388;-48
2021/11/16 03:53:10;;;;;;;52.75;21.67;;;;;;;4.35;100.00;96081.72;5105782;28;20059;-48
2021/11/16 03:55:41;;;;;;;65.43;22.45;;;;;;;4.27;99.87;96085.06;5097856;28;20067;-47
2021/11/16 03:58:11;;;;;;;63.40;23.17;;;;;;;4.34;99.59;96083.59;5110683;28;20523;-47
2021/11/16 04:00:42;;;;;;;59.35;22.92;;;;;;;4.24;100.00;96094.44;5091655;28;20051;-46
2021/11/16 04:03:09;;;;;;;60.83;21.77;;;;;;;4.21;100.00;96089.66;5096634;28;20052;-48
2021/11/16 04:05:37;;;;;;;55.35;20.60;;;;;;;4.36;100.00;96078.75;5111011;28;20510;-47
2021/11/16 04:08:04;;;;;;;61.83;22.95;;;;;;;4.54;98.76;96071.00;5109270;28;20127;-47
2021/11/16 04:10:32;;;;;;;54.88;20.92;;;;;;;4.39;99.20;96072.84;5107476;28;20452;-47
2021/11/16 04:13:00;;;;;;;49.25;19.42;;;;;;;4.15;100.00;96078.22;5108784;28;20079;-48
2021/11/16 04:15:29;;;;;;;57.42;21.73;;;;;;;4.33;100.00;96082.03;5110625;28;20127;-49
2021/11/16 04:17:57;;;;;;;62.75;21.90;;;;;;;4.44;99.43;96078.09;5106730;28;20054;-46
2021/11/16 04:20:31;;;;;;;55.17;20.55;;;;;;;4.60;99.43;96086.72;5100139;28;20036;-48
2021/11/16 04:23:01;;;;;;;64.25;22.38;;;;;;;4.38;99.15;96084.63;5096984;28;20489;-50
2021/11/16 04:25:29;;;;;;;57.55;21.45;;;;;;;4.50;99.14;96083.41;5100066;28;20044;-48
2021/11/16 04:27:56;;;;;;;67.13;22.30;;;;;;;4.47;98.92;96084.78;5097439;28;20479;-47
2021/11/16 04:30:25;;;;;;;69.03;23.42;;;;;;;4.04;100.00;96084.78;5095808;28;20051;-47
2021/11/16 04:32:53;;;;;;;59.63;21.92;;;;;;;4.08;100.00;96088.47;5109347;28;20093;-47
2021/11/16 04:35:20;;;;;;;66.53;23.73;;;;;;;4.34;100.00;96093.53;5114391;28;20043;-47
2021/11/16 04:37:49;;;;;;;62.78;21.20;;;;;;;4.35;100.00;96095.91;5115198;28;20131;-46
2021/11/16 04:40:22;;;;;;;65.53;22.70;;;;;;;4.48;100.00;96088.25;5114034;28;20093;-47
2021/11/16 04:42:50;;;;;;;60.50;21.42;;;;;;;4.48;99.09;96090.91;5098643;27;20035;-48
2021/11/16 04:45:22;;;;;;;57.13;20.63;;;;;;;4.18;99.40;96093.72;5112387;28;20075;-50
2021/11/16 04:47:54;;;;;;;56.38;21.88;;;;;;;4.33;99.76;96098.09;5113354;28;20412;-49
2021/11/16 05:04:21;;;;;;;48.33;20.63;;;;;;;4.58;98.54;96074.69;5112979;28;20122;-47
2021/11/16 05:06:51;;;;;;;55.47;21.55;;;;;;;4.58;98.35;96082.75;5113946;28;20043;-49
2021/11/16 05:09:18;;;;;;;47.05;18.35;;;;;;;4.32;99.07;96093.81;5114601;28;20084;-47
2021/11/16 05:11:44;;;;;;;47.53;19.30;;;;;;;4.41;99.16;96093.97;5111471;28;20042;-47
2021/11/16 05:14:12;;;;;;;53.38;20.67;;;;;;;4.76;98.22;96089.97;5112137;28;20146;-49
2021/11/16 05:16:39;;;;;;;50.05;20.23;;;;;;;4.81;97.47;96095.28;5112482;28;20048;-50
2021/11/16 05:19:06;;;;;;;55.55;22.77;;;;;;;4.35;98.25;96087.06;5109012;28;20046;-49
2021/11/16 05:21:33;;;;;;;54.95;20.05;;;;;;;4.40;98.56;96085.13;5093265;28;20040;-48
2021/11/16 05:24:01;;;;;;;54.50;20.38;;;;;;;4.06;99.70;96096.00;5108288;28;20131;-50
2021/11/16 05:26:29;;;;;;;48.65;20.50;;;;;;;4.09;99.85;96091.97;5114307;28;20047;-47
2021/11/16 05:28:57;;;;;;;47.92;19.30;;;;;;;4.09;100.00;96089.28;5113665;28;20157;-47
2021/11/16 05:31:25;;;;;;;47.60;19.88;;;;;;;4.13;100.00;96098.34;5112240;28;20118;-47
2021/11/16 05:33:54;;;;;;;47.72;18.55;;;;;;;4.19;100.00;96108.72;5106272;28;20040;-48
2021/11/16 05:36:22;;;;;;;42.67;17.30;;;;;;;4.24;100.00;96104.38;5112548;28;20047;-49
2021/11/16 05:38:50;;;;;;;45.17;17.88;;;;;;;4.31;99.21;96107.50;5113520;28;20066;-48
2021/11/16 05:41:17;;;;;;;46.33;18.50;;;;;;;4.28;98.66;96110.75;5113924;28;20092;-46
2021/11/16 05:43:46;;;;;;;45.47;19.63;;;;;;;4.39;98.25;96104.97;5112060;28;20524;-52
2021/11/16 05:46:22;;;;;;;47.95;17.85;;;;;;;4.43;98.43;96105.19;5111050;28;20461;-48
2021/11/16 05:48:51;;;;;;;39.97;17.38;;;;;;;4.24;98.89;96099.81;5112628;28;20478;-51
2021/11/16 05:51:20;;;;;;;39.30;16.98;;;;;;;4.15;98.83;96096.97;5110892;28;20055;-53
2021/11/16 05:53:52;;;;;;;41.22;17.25;;;;;;;4.35;99.25;96108.50;5112055;27;20043;-50
2021/11/16 05:56:22;;;;;;;44.40;16.55;;;;;;;4.42;98.74;96106.28;5112943;28;20061;-53
2021/11/16 05:58:53;;;;;;;39.58;15.57;;;;;;;4.18;99.03;96112.47;5112432;28;20097;-49
2021/11/16 06:01:21;;;;;;;35.80;14.68;;;;;;;4.13;99.58;96106.38;5113200;28;20093;-51
2021/11/16 06:03:52;;;;;;;34.40;15.57;;;;;;;4.12;99.39;96104.78;5104128;28;20044;-48
2021/11/16 06:06:25;;;;;;;37.00;15.80;;;;;;;4.11;98.73;96111.22;5113872;28;20054;-52
2021/11/16 06:08:53;;;;;;;30.27;14.88;;;;;;;4.15;98.93;96112.25;5112185;28;20142;-48
2021/11/16 06:11:22;;;;;;;37.42;15.35;;;;;;;4.17;98.99;96105.50;5110052;28;20150;-50
2021/11/16 06:13:51;;;;;;;31.42;14.55;;;;;;;4.28;98.58;96103.50;5111660;28;20046;-51
2021/11/16 06:16:19;;;;;;;33.45;14.85;;;;;;;4.19;97.87;96105.22;5092862;28;20074;-49
2021/11/16 06:18:58;;;;;;;30.73;13.60;;;;;;;4.31;97.52;96100.25;5107790;28;20079;-44
2021/11/16 06:21:27;;;;;;;32.95;13.38;;;;;;;4.19;97.20;96108.72;5113111;28;20554;-45
2021/11/16 06:23:54;;;;;;;28.13;13.30;;;;;;;4.41;97.82;96102.00;5104975;28;20036;-44
2021/11/16 06:26:22;;;;;;;28.95;12.90;;;;;;;4.15;97.40;96112.25;5093063;28;20142;-44
2021/11/16 06:28:51;;;;;;;30.10;12.18;;;;;;;4.19;97.34;96110.56;5111699;28;20043;-45
2021/11/16 06:31:21;;;;;;;26.67;12.77;;;;;;;4.18;97.67;96115.13;5110944;28;20126;-45
2021/11/16 06:33:48;;;;;;;25.13;12.35;;;;;;;4.33;97.35;96114.16;5087631;28;20040;-44
2021/11/16 06:36:15;;;;;;;23.55;11.15;;;;;;;4.49;96.45;96122.00;5112365;28;20108;-44
2021/11/16 06:38:42;;;;;;;26.15;12.07;;;;;;;4.00;96.47;96107.88;5112262;28;20122;-44
2021/11/16 06:41:09;;;;;;;22.77;11.60;;;;;;;4.05;97.72;96107.00;5101183;28;20382;-44
2021/11/16 06:43:36;;;;;;;22.40;11.73;;;;;;;4.13;97.06;96106.38;5110752;28;20116;-44
2021/11/16 06:46:04;;;;;;;25.25;11.10;;;;;;;4.11;96.84;96112.00;5092268;28;20496;-50
2021/11/16 06:48:32;;;;;;;22.45;10.27;;;;;;;3.99;96.95;96109.72;5078403;28;20070;-45
2021/11/16 06:51:00;;;;;;;21.30;9.85;;;;;;;3.99;97.00;96109.72;5094289;28;20594;-46
2021/11/16 06:53:28;;;;;;;24.75;9.98;;;;;;;3.90;97.51;96122.16;5111162;28;20043;-43
2021/11/16 06:55:56;;;;;;;22.20;10.43;;;;;;;3.93;96.90;96110.91;5110859;28;20134;-45
2021/11/16 06:58:23;;;;;;;21.30;9.60;;;;;;;3.91;97.16;96123.75;5112323;28;20446;-44
2021/11/16 07:00:52;;;;;;;22.05;10.13;;;;;;;3.94;97.30;96120.50;5108596;28;20063;-44
2021/11/16 07:03:20;;;;;;;18.30;9.70;;;;;;;3.96;96.86;96122.88;5106443;28;20036;-45
2021/11/16 07:05:53;;;;;;;20.35;8.98;;;;;;;3.98;96.40;96121.53;5110418;28;20069;-45
2021/11/16 07:08:35;;;;;;;20.35;9.98;;;;;;;3.98;96.21;96115.38;5112484;28;20047;-44
2021/11/16 07:11:14;;;;;;;19.27;9.40;;;;;;;4.10;95.93;96118.47;5088914;28;20696;-44
2021/11/16 07:13:55;;;;;;;19.35;8.85;;;;;;;4.05;96.10;96129.22;5100991;28;20105;-50
2021/11/16 07:16:24;;;;;;;17.67;8.90;;;;;;;3.92;95.82;96132.59;5104949;28;20104;-43
2021/11/16 07:18:53;;;;;;;21.23;9.73;;;;;;;3.96;96.26;96137.09;5109461;28;20040;-47
2021/11/16 07:21:21;;;;;;;19.02;9.00;;;;;;;4.01;96.60;96133.56;5110323;28;20046;-44
2021/11/16 07:24:08;;;;;;;18.65;9.82;;;;;;;4.04;96.18;96146.38;5104794;28;20052;-44
2021/11/16 07:26:41;;;;;;;20.52;9.13;;;;;;;4.01;95.67;96144.25;5106376;28;20051;-44
2021/11/16 07:29:15;;;;;;;16.95;9.52;;;;;;;4.05;95.17;96144.50;5112250;28;20529;-43
2021/11/16 07:31:43;;;;;;;20.23;9.07;;;;;;;3.93;95.52;96150.22;5111857;28;20043;-45
2021/11/16 07:34:15;;;;;;;16.73;8.77;;;;;;;3.88;95.79;96150.31;5091781;28;20136;-48
2021/11/16 07:36:54;;;;;;;18.55;9.57;;;;;;;3.87;95.68;96154.84;5106894;28;20039;-44
2021/11/16 07:39:22;;;;;;;16.58;7.70;;;;;;;3.93;95.63;96143.03;5112398;28;20122;-43
2021/11/16 07:42:02;;;;;;;17.35;8.57;;;;;;;3.87;95.81;96149.50;5106954;27;20569;-43
2021/11/16 07:44:30;;;;;;;17.20;8.15;;;;;;;3.88;95.44;96148.41;5092150;28;20151;-49
2021/11/16 07:46:57;;;;;;;19.23;8.77;;;;;;;3.99;95.64;96146.41;5107805;28;20158;-45
2021/11/16 07:49:25;;;;;;;16.80;8.52;;;;;;;4.11;94.16;96143.34;5094053;28;20050;-44
2021/11/16 07:51:54;;;;;;;15.20;7.60;;;;;;;4.04;94.15;96148.25;5097886;28;20131;-44
2021/11/16 07:54:22;;;;;;;16.38;7.75;;;;;;;3.87;94.70;96146.81;5090972;28;20044;-46
2021/11/16 07:56:51;;;;;;;17.33;8.02;;;;;;;3.88;95.08;96150.31;5105292;28;20130;-45
2021/11/16 07:59:23;;;;;;;20.80;9.20;;;;;;;4.05;94.81;96141.81;5111888;28;20127;-43
2021/11/16 08:04:40;;;;;;;16.20;8.27;;;;;;;4.02;94.12;96155.75;5111208;28;20054;-45
2021/11/16 08:09:56;;;;;;;17.15;8.95;;;;;;;3.87;94.02;96165.56;5111232;28;20126;-47
2021/11/16 08:12:32;;;;;;;16.83;8.50;;;;;;;4.04;93.07;96161.66;5090950;28;20064;-45
2021/11/16 08:15:03;;;;;;;16.20;8.52;;;;;;;4.06;93.41;96170.97;5103797;28;20078;-45
2021/11/16 08:17:32;;;;;;;14.68;7.15;;;;;;;4.08;92.85;96162.66;5111131;28;20113;-44
2021/11/16 08:20:04;;;;;;;13.85;8.20;;;;;;;4.07;93.07;96175.25;5137385;22;20058;-50
2021/11/16 08:22:31;;;;;;;14.10;7.15;;;;;;;4.11;92.08;96172.81;5130976;28;20039;-52
2021/11/16 08:24:58;;;;;;;13.27;7.40;;;;;;;4.13;91.71;96171.44;5130658;28;20054;-44
2021/11/16 08:27:30;;;;;;;14.77;8.18;;;;;;;4.47;90.72;96156.31;5114494;28;20075;-45
2021/11/16 08:30:01;;;;;;;17.30;8.17;;;;;;;4.30;91.70;96162.16;5114108;28;20074;-51
2021/11/16 08:32:34;;;;;;;12.32;6.85;;;;;;;4.18;91.44;96175.94;5102832;28;20055;-45
2021/11/16 08:35:14;;;;;;;12.75;6.50;;;;;;;3.96;91.51;96173.75;5106831;28;20556;-50
2021/11/16 08:37:44;;;;;;;13.82;6.55;;;;;;;4.02;92.03;96174.50;5111593;28;20046;-47
2021/11/16 08:40:15;;;;;;;16.15;7.80;;;;;;;4.08;91.52;96171.50;5111115;28;20130;-45
2021/11/16 08:42:53;;;;;;;13.98;6.20;;;;;;;3.79;92.22;96168.84;5093980;28;20394;-45
2021/11/16 08:45:27;;;;;;;13.52;6.32;;;;;;;3.59;93.17;96175.19;5109938;28;20436;-49
2021/11/16 08:48:10;;;;;;;14.02;6.65;;;;;;;3.67;92.97;96168.41;5111531;28;20492;-47
2021/11/16 08:50:41;;;;;;;16.77;7.07;;;;;;;3.69;93.20;96163.59;5104503;28;20071;-45
2021/11/16 08:53:30;;;;;;;14.63;7.03;;;;;;;3.59;93.04;96161.03;5090318;28;21066;-46
2021/11/16 08:55:59;;;;;;;11.77;6.05;;;;;;;3.62;92.74;96168.47;5091643;28;20047;-47
2021/11/16 08:58:28;;;;;;;13.50;6.70;;;;;;;3.91;92.59;96171.16;5091912;28;20422;-45
2021/11/16 09:01:01;;;;;;;13.25;6.75;;;;;;;3.86;92.41;96171.19;5111001;28;20088;-48
2021/11/16 09:03:30;;;;;;;;;;;;;;;3.89;92.46;96176.75;5106938;28;20047;-52
2021/11/16 09:06:00;;;;;;;14.27;7.10;;;;;;;3.99;92.21;96173.19;5115249;28;19965;-48
2021/11/16 09:08:31;;;;;;;12.77;6.13;;;;;;;3.99;91.99;96175.88;5114871;28;20138;-51
2021/11/16 09:11:10;;;;;;;13.60;6.88;;;;;;;3.95;92.35;96183.66;5096926;28;20040;-50
2021/11/16 09:13:38;;;;;;;12.57;6.80;;;;;;;4.05;92.29;96179.28;5109073;28;20118;-53
2021/11/16 09:16:21;;;;;;;11.60;6.28;;;;;;;3.95;92.25;96183.66;5114884;28;20577;-51
2021/11/16 09:18:53;;;;;;;11.32;6.45;;;;;;;3.95;92.56;96181.00;5114419;28;20075;-55
2021/11/16 09:21:34;;;;;;;11.95;6.65;;;;;;;3.91;92.45;96189.88;5113998;28;20138;-52
2021/11/16 09:24:02;;;;;;;14.63;6.22;;;;;;;3.94;92.03;96184.75;5083298;28;20088;-51
2021/11/16 09:29:03;;;;;;;13.70;6.68;;;;;;;3.87;92.23;96186.19;5114454;28;20567;-53
2021/11/16 09:31:37;;;;;;;12.80;6.95;;;;;;;3.96;92.60;96185.28;5114437;28;20039;-51
2021/11/16 09:34:21;;;;;;;14.85;7.82;;;;;;;3.76;93.63;96180.13;5106488;28;20426;-53
2021/11/16 09:36:55;;;;;;;14.25;8.15;;;;;;;4.06;92.48;96180.88;5114527;28;20139;-48
2021/11/16 09:39:32;;;;;;;14.63;7.72;;;;;;;3.68;93.40;96178.06;5114191;28;20122;-50
2021/11/16 09:42:04;;;;;;;13.90;7.03;;;;;;;3.40;94.66;96179.63;5113283;28;20070;-47
2021/11/16 09:44:42;;;;;;;14.27;7.82;;;;;;;3.67;94.76;96176.44;5113433;28;20400;-49
2021/11/16 09:47:15;;;;;;;15.95;7.40;;;;;;;3.88;94.07;96179.75;5114235;28;20043;-48
2021/11/16 09:49:47;;;;;;;16.77;7.53;;;;;;;3.84;93.36;96187.53;5092598;28;20150;-54
2021/11/16 09:52:20;;;;;;;15.57;8.07;;;;;;;3.85;93.78;96189.13;5075266;28;20046;-51
2021/11/16 09:54:47;;;;;;;14.25;7.32;;;;;;;3.95;93.04;96190.91;5105664;28;20047;-50
2021/11/16 09:57:15;;;;;;;16.92;8.02;;;;;;;3.92;93.57;96186.91;5114166;28;20493;-49
2021/11/16 09:59:45;;;;;;;15.13;7.80;;;;;;;3.97;93.34;96181.53;5095696;28;20523;-48
2021/11/16 10:02:28;;;;;;;19.23;8.45;;;;;;;3.90;94.12;96181.06;5105460;28;20046;-47
2021/11/16 10:05:01;;;;;;;16.80;8.15;;;;;;;3.85;93.81;96180.31;5088482;28;20501;-50
2021/11/16 10:07:30;;;;;;;18.92;8.65;;;;;;;3.91;94.05;96181.84;5095877;28;20089;-46
2021/11/16 10:09:57;;;;;;;16.83;8.05;;;;;;;3.56;96.12;96175.75;5113386;28;20051;-49
2021/11/16 10:12:40;;;;;;;18.25;8.90;;;;;;;3.55;95.59;96170.69;5098913;28;20119;-49
2021/11/16 10:15:09;;;;;;;18.05;7.63;;;;;;;3.73;94.58;96178.78;5107291;28;20515;-48
2021/11/16 10:17:36;;;;;;;21.23;9.32;;;;;;;3.77;94.79;96171.03;5113726;28;20040;-48
2021/11/16 10:20:04;;;;;;;16.90;8.02;;;;;;;3.90;93.66;96170.34;5114231;28;20126;-48
2021/11/16 10:22:31;;;;;;;13.90;7.15;;;;;;;3.86;92.23;96161.28;5076468;28;20500;-53
2021/11/16 10:25:14;;;;;;;14.50;7.07;;;;;;;4.03;91.85;96174.25;5108576;28;20067;-54
2021/11/16 10:27:43;;;;;;;11.35;6.70;;;;;;;4.12;91.48;96175.19;5113602;28;20051;-49
2021/11/16 10:30:20;;;;;;;11.75;5.68;;;;;;;4.10;90.55;96168.53;5113060;28;20496;-53
2021/11/16 10:33:12;;;;;;;10.95;5.68;;;;;;;4.26;90.53;96167.28;5101950;28;20067;-51
2021/11/16 10:35:39;;;;;;;12.35;6.05;;;;;;;4.17;90.21;96179.72;5111104;28;20484;-49
2021/11/16 10:38:08;;;;;;;9.25;4.60;;;;;;;4.14;89.57;96162.31;5113194;28;20040;-47
2021/11/16 10:40:36;;;;;;;10.25;5.57;;;;;;;4.22;89.33;96158.22;5113171;28;20202;-50
2021/11/16 10:43:05;;;;;;;9.30;4.80;;;;;;;4.04;90.17;96154.41;5111226;28;20036;-49
2021/11/16 10:45:43;;;;;;;9.93;5.03;;;;;;;4.25;89.98;96149.59;5113386;28;20405;-49
2021/11/16 10:48:18;;;;;;;9.93;5.15;;;;;;;4.17;89.84;96152.94;5113374;28;20066;-47
2021/11/16 10:50:48;;;;;;;8.55;4.50;;;;;;;4.06;90.34;96162.13;5107132;28;20443;-49
2021/11/16 10:53:19;;;;;;;10.60;5.47;;;;;;;4.18;90.27;96155.31;5110091;28;20035;-47
2021/11/16 10:55:52;;;;;;;9.88;5.13;;;;;;;4.14;89.98;96151.59;5111168;28;20047;-47
2021/11/16 10:58:27;;;;;;;;;;;;;;;4.13;89.47;96147.34;5113742;28;20092;-50
2021/11/16 11:00:56;;;;;;;11.75;5.40;;;;;;;4.10;89.48;96149.81;5094949;28;20321;-46
2021/11/16 11:03:27;;;;;;;10.55;5.05;;;;;;;4.06;90.23;96157.56;5094548;28;20089;-46
2021/11/16 11:05:57;;;;;;;9.85;5.70;;;;;;;4.20;89.19;96147.78;5094820;28;20048;-53
2021/11/16 11:08:34;;;;;;;10.07;5.80;;;;;;;3.93;90.61;96148.38;5112774;28;20082;-53
2021/11/16 11:11:07;;;;;;;13.23;6.50;;;;;;;4.09;90.82;96134.78;5112187;28;20040;-51
2021/11/16 11:13:35;;;;;;;11.10;5.50;;;;;;;3.91;91.47;96134.47;5092553;28;20158;-53
2021/11/16 11:16:11;;;;;;;11.55;6.60;;;;;;;3.91;91.94;96141.69;5111889;28;20048;-49
2021/11/16 11:18:41;;;;;;;11.77;6.50;;;;;;;4.11;91.48;96140.69;5113088;28;20044;-52
2021/11/16 11:21:22;;;;;;;10.57;6.50;;;;;;;4.20;90.69;96136.28;5089779;28;20131;-50
2021/11/16 11:23:54;;;;;;;12.40;6.90;;;;;;;4.10;90.78;96139.09;5097098;28;20134;-51
2021/11/16 11:29:20;;;;;;;12.18;6.38;;;;;;;4.16;91.17;96135.25;5112029;28;20075;-51
2021/11/16 11:31:55;;;;;;;11.20;5.93;;;;;;;4.08;91.78;96133.22;5111391;28;20055;-50
2021/11/16 11:34:37;;;;;;;15.10;7.70;;;;;;;4.23;91.41;96133.03;5095479;28;20036;-54
2021/11/16 11:37:17;;;;;;;12.82;6.90;;;;;;;4.11;91.27;96130.75;5112342;28;20127;-49
2021/11/16 11:39:47;;;;;;;13.43;7.25;;;;;;;4.03;91.56;96130.59;5108301;28;20429;-51
2021/11/16 11:42:14;;;;;;;13.98;6.90;;;;;;;3.89;92.58;96123.22;5091679;28;20418;-49
2021/11/16 11:45:22;;;;;;;14.02;7.13;;;;;;;3.49;93.95;96121.78;5097697;28;20407;-44
2021/11/16 11:47:52;;;;;;;14.30;6.88;;;;;;;3.43;94.48;96115.66;5112402;28;20420;-48
2021/11/16 11:50:30;;;;;;;15.85;7.53;;;;;;;3.53;94.80;96113.97;5089333;28;20390;-47
2021/11/16 11:53:00;;;;;;;13.23;6.75;;;;;;;3.71;93.79;96114.06;5107214;28;20123;-45
2021/11/16 11:55:30;;;;;;;17.08;7.90;;;;;;;3.80;93.90;96118.78;5092059;28;20155;-45
2021/11/16 11:58:01;;;;;;;17.88;7.70;;;;;;;3.78;93.59;96108.38;5107212;28;20046;-48
2021/11/16 12:00:30;;;;;;;14.43;6.78;;;;;;;3.76;93.64;96121.22;5094244;28;20079;-51
2021/11/16 12:02:57;;;;;;;16.67;5.95;;;;;;;3.68;93.82;96113.84;5109743;28;20035;-51
2021/11/16 12:05:29;;;;;;;13.65;6.85;;;;;;;3.77;93.66;96114.00;5073804;28;20074;-51
2021/11/16 12:07:57;;;;;;;15.38;7.55;;;;;;;3.87;93.06;96112.03;5106216;28;20090;-52
2021/11/16 12:10:24;;;;;;;14.57;7.00;;;;;;;3.99;92.28;96108.94;5111755;28;20042;-51